Ergebnisliste vom: 24.04.2015 - RaschŘtzlauf Lampertswalde2015 - 11,4 km

weitere Ergebnisse >>

Platz Pl.m Pl.w Stnr. Name,Vorname Verein GJ Ak AKm AKw Endzeit RŘckst.
1 1   110 Sickert, Tino Citylaufverein Dresden 78 M35 1   0:41:17 0:00:00
2 2   156 Goldbach, Thomas SC Riesa 83 M30 1   0:41:32 0:00:15
3 3   178 G├Âhler, Niels SV Elbland Coswig-Mei├čen 76 M35 2   0:41:55 0:00:38
4 4   118 Thieme, Holger SC Riesa 72 M40 1   0:42:42 0:01:25
5 5   135 Wolf, Daniel LG Priestewitz 74 M40 2   0:45:11 0:03:54
6 6   162 Gast, Toni SV Stauchnitz 47 76 M35 3   0:45:46 0:04:29
7 7   150 Berndt, Thomas SSV Planeta Radebeul 68 M45 1   0:46:06 0:04:49
8 8   174 B├Âhme, Kai LG Priestewitz 70 M45 2   0:46:37 0:05:20
9 9   179 Wolf, Stefan LG Priestewitz 86 MHK 1   0:46:44 0:05:27
10 10   124 Mutzke, Thomas Wei├čig a. Rasch├╝tz 75 M40 3   0:46:55 0:05:38
11 11   177 Schliwa, Sebastian Team Tempus 83 M30 2   0:47:42 0:06:25
12 12   159 Junghanns, Mario SV Vorw├Ąrts D├Âbeln 65 M50 1   0:48:26 0:07:09
13 13   123 P├Ąpscheck, Silvio Gro├čenhain 82 M30 3   0:48:51 0:07:34
14 14   139 Umlauf, Steffen SV Hellerau 61 M50 2   0:49:06 0:07:49
15 15   170 R├Âsch, Carsten Mei├čen 69 M45 3   0:49:12 0:07:55
16 16   117 Fleischer, Torsten Coswig 67 M45 4   0:49:24 0:08:07
17 17   137 Otto, Andreas SV Elbland Coswig-Mei├čen 76 M35 4   0:49:29 0:08:12
18 18   113 Becker, Heiko Strehla 68 M45 5   0:49:40 0:08:23
18 18   193 von Kloss, Benjamin Dresden 79 M35 5   0:49:40 0:08:23
20 20   136 G├Âtzelt, Jan SV Hellerau 71 M40 4   0:50:00 0:08:43
21   1 114 Stich, Grit Radebeul 70 W45   1 0:50:07 0:08:50
22 21   138 Werner, Enrico Coswig 79 M35 6   0:50:15 0:08:58
23 22   147 B├╝di, Karel LRG Adonis Riesa 70 M45 6   0:50:17 0:09:00
24 23   166 Berg, Markus Mei├čen 79 M35 7   0:50:33 0:09:16
25 24   14 Pospisil, Joachim Laufgruppe Nossen 58 M55 1   0:50:46 0:09:29
26 25   15 Garbsch, Maik Moritzburg 90 MHK 2   0:50:49 0:09:32
27 26   120 Matz, J├╝rgen Dresden 58 M55 2   0:51:03 0:09:46
28 27   158 Kn├Âfel, Detlef Mei├čen 63 M50 3   0:51:24 0:10:07
29 28   132 Schade, Michael SV Traktor Priestewitz 89 MHK 3   0:51:32 0:10:15
30   2 115 Lehmann, Birgit BSV Chemie Radebeul 64 W50   1 0:51:51 0:10:34
31 29   104 Kaubisch, Frank Hirschfelder L├Ąufer TEA 67 M45 7   0:52:05 0:10:48
32 30   167 Trapp, J├Ârg Wacker Laufgruppe 78 M35 8   0:52:16 0:10:59
33 31   131 Schietzel, Stefan LG Priestewitz 90 MHK 4   0:52:34 0:11:17
34 32   143 Eschenwecker, Thomas LRG Adonis Riesa 62 M50 4   0:52:43 0:11:26
35 33   140 Kauder, Michael LG TuDS Weinb├Âhla 72 M40 5   0:52:45 0:11:28
36   3 189 Hammer, Grit Mei├čen 85 W30   1 0:52:47 0:11:30
37   4 111 Dewitz, Silke ESV Lok D├Âbeln 67 W45   2 0:53:03 0:11:46
38 34   106 Heyer, Ulrich Chemnitz 53 M60 1   0:53:19 0:12:02
39 35   130 Richter, Frank Mei├čen 57 M55 3   0:53:37 0:12:20
40 36   146 Bransch, Ulli Laufgruppe Nossen 84 M30 4   0:54:01 0:12:44
41 37   122 H├╝bler, Dennis leisnig 78 M35 9   0:54:09 0:12:52
42 38   109 Alexander, Frank D├Âbelner SV Vorw├Ąrts 59 M55 4   0:54:35 0:13:18
43 39   188 Noppes, Ralf SV Nordwind Naund├Ârfel 76 M35 10   0:54:37 0:13:20
44   5 126 Gittel, Juliane Chemie Wacker AG 79 W35   1 0:54:45 0:13:28
45 40   182 Falkenthal, Frank Gro├čenhain 73 M40 6   0:54:47 0:13:30
46 41   142 Heine, Volker Gr├Âditz 69 M45 8   0:55:11 0:13:54
47 42   187 Jakat, Gerd Eestly Husky Race 63 M50 5   0:55:14 0:13:57
48 43   133 Stange, Frank nciht quatschen, machen! 76 M35 11   0:55:18 0:14:01
49   6 173 Wegner-Drichelt, Conni Mei├čen 74 W40   1 0:55:27 0:14:10
50 44   119 Vales, Henry Schwarzbach 62 M50 6   0:55:36 0:14:19
51   7 157 Zange, Andrea Mei├čen 62 W50   2 0:55:49 0:14:32
52 45   160 Freitag, Steffen Weinb├Âhla 68 M45 9   0:56:18 0:15:01
53 46   168 Krille, Steffen SV Wildenhain 63 M50 7   0:56:26 0:15:09
54 47   148 Vogel, Dieter Laufgruppe Nossen 65 M50 8   0:56:46 0:15:29
55 48   155 Hunger, Jens Sch├Ânfeld 70 M45 10   0:57:06 0:15:49
56 49   192 Brucksch, Tilo Peritz 71 M40 7   0:57:08 0:15:51
57 50   116 Lehmann, Bernd SV Merzdorf 57 M55 5   0:57:12 0:15:55
57 50   144 R├╝hle, Frank Lichtensee 71 M40 8   0:57:12 0:15:55
59 52   186 Walter, Roman Jugendclub Sacka 86 MHK 5   0:57:13 0:15:56
60 53   169 Thieme, Rene Ebersbach 72 M40 9   0:57:20 0:16:03
61   8 149 Primus, Heike SC Riesa 62 W50   3 0:57:21 0:16:04
62 54   134 Hammer, Steffen Riesa 71 M40 10   0:57:35 0:16:18
63 55   161 Richter, Florian SV Motor Gro├čenhain 94 MHK 6   0:57:45 0:16:28
64 56   152 Krause, Rene Linz 81 M30 5   0:57:58 0:16:41
65   9 154 Bormann, Sophie LWV 05 Bali 84 W30   2 0:58:19 0:17:02
66 57   151 B├Ąnsch, Gerd Laufgruppe Nossen 73 M40 11   0:58:33 0:17:16
67   10 185 Deutschbein, Linda K├Ânigsbr├╝ck 92 WHK   1 0:58:40 0:17:23
68   11 191 Kaiser, Susann FV Zabeltitz 76 W35   2 0:58:54 0:17:37
69   12 105 Heyer, Ina Chemnitz 80 W35   3 0:59:21 0:18:04
70 58   103 Thiel, Christoph Lampertswalde 89 MHK 7   0:59:39 0:18:22
71 59   121 M├╝ller, Uwe Leisnig 70 M45 11   0:59:51 0:18:34
72   13 108 Preu├čner, Kristina Lauffreunde N├╝nchritz 74 W40   2 1:00:08 0:18:51
73   14 190 Kuschmierz, Katrin FV Zabeltitz 76 W35   4 1:00:58 0:19:41
74 60   176 Wick, Peter Weinb├Âhla 59 M55 6   1:01:05 0:19:48
75 61   180 M├Âbius, Tino Diesbar-Seu├člitz 64 M50 9   1:01:16 0:19:59
76 62   141 Krause, Harry Lampertswalde 56 M55 7   1:01:26 0:20:09
77 63   184 Goldbach, Thomas FV Gr├Âditz 72 M40 12   1:02:00 0:20:43
78   15 163 Richter, Manuela LG Priestewitz 74 W40   3 1:03:13 0:21:56
79   16 164 Stache, Diana LG Mauerweg Berlin 80 W35   5 1:03:24 0:22:07
80   17 107 H├Ąu├čler, Ines Gro├čenhain 68 W45   3 1:03:51 0:22:34
81   18 175 Mi├čbach, Marita Mei├čen 60 W55   1 1:04:00 0:22:43
82   19 112 Hammer, Ines Strehla 70 W45   4 1:04:14 0:22:57
83   20 181 M├╝ller, Michaela TV Frisch Auf Mei├čen 72 W40   4 1:04:18 0:23:01
84 64   102 Eisemuth, Sandro SV Lampertswalde 81 M30 6   1:04:33 0:23:16
85   21 171 Berge, Anett Riesa 64 W50   4 1:04:43 0:23:26
86 65   183 Zeiske, Mathias Gro├čenhain 66 M45 12   1:06:04 0:24:47
87 66   194 Heinrich, Alexander   83 M30 7   1:06:29 0:25:12
88   22 195 Ulbricht, Nancy Blochwitz 89 WHK   2 1:06:30 0:25:13
89   23 145 R├╝hle, Ivonne Lichtensee 71 W40   5 1:07:13 0:25:56
90   24 153 Hesse, Petra LSV Pirna 59 W55   2 1:07:50 0:26:33
91 67   165 Eberhart, Peter Gro├čenhain 61 M50 10   1:11:01 0:29:44
92   25 127 Kneschke, Uta SC Riesa 62 W50   5 1:13:36 0:32:19
93 68   128 Martick, Siegfied SC Riesa 47 M65 1   1:13:39 0:32:22
(c) 1990-2020 Blue Wonder Sport Promotion - Andreas Burow - Zeitnahme & Auswertung - www.Triathlon-Service.de